Time;durP1;ratioP1;P1;durP2;ratioP2;P2;SDS_P1;SDS_P2;PMS_P1;PMS_P2;Temp;Humidity;BMP_temperature;BMP_pressure;BME280_temperature;BME280_humidity;BME280_pressure;Samples;Min_cycle;Max_cycle;Signal;HPM_P1;HPM_P2
2022/06/22 00:03:50;;;;;;;10.25;5.88;;;11.30;99.90;;;;;;10478753;28;20462;-86
2022/06/22 00:08:52;;;;;;;9.20;5.50;;;11.30;99.90;;;;;;10485588;28;20056;-83
2022/06/22 00:13:57;;;;;;;9.65;5.53;;;11.40;99.90;;;;;;10471357;28;20028;-83
2022/06/22 00:18:58;;;;;;;9.05;5.47;;;11.40;99.90;;;;;;10478475;28;20476;-83
2022/06/22 00:24:03;;;;;;;8.00;5.80;;;11.40;99.90;;;;;;10474589;28;20115;-87
2022/06/22 00:29:09;;;;;;;11.43;6.10;;;11.20;99.90;;;;;;10483930;28;20036;-83
2022/06/22 00:34:10;;;;;;;8.35;5.63;;;11.00;99.90;;;;;;10477417;28;20523;-84
2022/06/22 00:39:21;;;;;;;12.00;6.30;;;10.80;99.90;;;;;;10476818;28;20035;-83
2022/06/22 00:44:33;;;;;;;13.82;5.88;;;10.80;99.90;;;;;;10437144;28;20056;-84
2022/06/22 00:49:35;;;;;;;8.73;6.30;;;10.90;99.90;;;;;;10468136;28;20039;-85
2022/06/22 00:54:37;;;;;;;9.90;6.13;;;11.00;99.90;;;;;;10467774;28;20032;-83
2022/06/22 00:59:50;;;;;;;7.70;5.90;;;11.00;99.90;;;;;;10468891;28;20025;-88
2022/06/22 01:04:57;;;;;;;11.63;6.43;;;10.90;99.90;;;;;;10480052;28;20049;-83
2022/06/22 01:10:11;;;;;;;8.85;6.50;;;10.70;99.90;;;;;;10456894;28;20056;-86
2022/06/22 01:15:22;;;;;;;9.75;6.78;;;10.70;99.90;;;;;;10458331;28;20393;-85
2022/06/22 01:21:01;;;;;;;10.63;6.30;;;10.80;99.90;;;;;;10471437;28;20032;-82
2022/06/22 01:26:59;;;;;;;14.27;7.60;;;10.70;99.90;;;;;;10449550;28;20044;-83
2022/06/22 01:32:11;;;;;;;9.53;7.20;;;10.50;99.90;;;;;;10320289;28;20457;-83
2022/06/22 01:37:16;;;;;;;10.70;6.87;;;10.20;99.90;;;;;;10454526;28;20090;-85
2022/06/22 01:42:37;;;;;;;9.80;7.13;;;10.20;99.90;;;;;;10466711;28;20031;-84
2022/06/22 01:47:49;;;;;;;13.30;8.37;;;10.20;99.90;;;;;;10466923;28;20524;-83
2022/06/22 01:53:10;;;;;;;13.85;7.80;;;10.10;99.90;;;;;;10468126;28;20028;-83
2022/06/22 01:58:17;;;;;;;11.20;7.53;;;10.20;99.90;;;;;;10474763;28;20032;-83
2022/06/22 02:03:43;;;;;;;12.00;8.50;;;10.00;99.90;;;;;;10477640;28;20057;-83
2022/06/22 02:08:44;;;;;;;11.90;8.33;;;10.00;99.90;;;;;;10450237;28;20056;-83
2022/06/22 02:13:54;;;;;;;13.47;8.33;;;10.10;99.90;;;;;;10463799;28;20024;-85
2022/06/22 02:18:58;;;;;;;14.67;8.50;;;10.10;99.90;;;;;;10455681;28;20033;-83
2022/06/22 02:24:04;;;;;;;12.27;6.90;;;10.00;99.90;;;;;;10477606;28;20035;-85
2022/06/22 02:29:05;;;;;;;10.73;6.37;;;10.00;99.90;;;;;;10472222;28;20774;-84
2022/06/22 02:34:06;;;;;;;10.90;7.20;;;10.10;99.90;;;;;;10459188;28;20028;-83
2022/06/22 02:39:09;;;;;;;7.97;6.07;;;10.30;99.90;;;;;;10480212;28;20524;-83
2022/06/22 02:44:34;;;;;;;10.18;5.85;;;10.50;99.90;;;;;;10467300;28;20471;-82
2022/06/22 02:49:39;;;;;;;9.00;5.87;;;10.70;99.90;;;;;;10467413;28;20815;-82
2022/06/22 02:54:55;;;;;;;10.17;6.23;;;11.00;99.90;;;;;;10472347;28;20029;-82
2022/06/22 02:59:56;;;;;;;10.67;6.30;;;11.20;99.90;;;;;;10479146;28;20086;-82
2022/06/22 03:04:58;;;;;;;10.80;6.05;;;11.20;99.90;;;;;;10505648;28;20302;-83
2022/06/22 03:10:02;;;;;;;12.10;6.63;;;11.10;99.90;;;;;;10520904;28;20064;-82
2022/06/22 03:15:07;;;;;;;9.35;6.35;;;10.80;99.90;;;;;;10485806;28;20024;-81
2022/06/22 03:20:32;;;;;;;10.27;6.40;;;10.50;99.90;;;;;;10458316;28;20020;-84
2022/06/22 03:25:43;;;;;;;9.50;7.20;;;10.40;99.90;;;;;;10492834;28;20040;-82
2022/06/22 03:30:52;;;;;;;10.90;7.38;;;10.40;99.90;;;;;;10479588;28;20025;-83
2022/06/22 03:35:59;;;;;;;10.53;7.17;;;10.40;99.90;;;;;;10474742;28;20063;-83
2022/06/22 03:41:05;;;;;;;9.03;6.10;;;10.30;99.90;;;;;;10477732;28;20119;-87
2022/06/22 03:46:15;;;;;;;12.30;7.78;;;10.10;99.90;;;;;;10479426;28;20029;-85
2022/06/22 03:51:22;;;;;;;11.18;7.53;;;10.10;99.90;;;;;;10493035;28;20101;-84
2022/06/22 03:56:28;;;;;;;12.80;7.38;;;10.10;99.90;;;;;;10487248;28;20070;-85
2022/06/22 04:01:29;;;;;;;13.00;8.27;;;10.20;99.90;;;;;;10469762;28;20021;-87
2022/06/22 04:06:37;;;;;;;14.83;8.37;;;10.20;99.90;;;;;;10482473;28;20060;-86
2022/06/22 04:11:44;;;;;;;12.23;8.83;;;10.20;99.90;;;;;;10469125;28;20033;-84
2022/06/22 04:16:49;;;;;;;14.90;8.57;;;10.40;99.90;;;;;;10462233;28;20465;-86
2022/06/22 04:21:58;;;;;;;12.27;8.90;;;10.50;99.90;;;;;;10439691;28;20717;-82
2022/06/22 04:27:11;;;;;;;11.15;8.15;;;10.70;99.90;;;;;;10486596;28;20067;-82
2022/06/22 04:32:26;;;;;;;13.45;8.52;;;10.80;99.90;;;;;;10465862;28;20024;-83
2022/06/22 04:37:54;;;;;;;12.10;7.03;;;11.00;99.90;;;;;;10483185;28;20417;-82
2022/06/22 04:43:00;;;;;;;11.05;7.60;;;11.20;99.90;;;;;;10463407;28;20075;-85
2022/06/22 04:48:15;;;;;;;14.10;8.30;;;11.40;99.90;;;;;;10471092;28;20126;-84
2022/06/22 04:53:45;;;;;;;11.18;7.25;;;11.60;99.90;;;;;;10470357;28;20068;-85
2022/06/22 04:58:52;;;;;;;15.57;7.80;;;11.80;99.90;;;;;;10466631;28;20417;-83
2022/06/22 05:04:01;;;;;;;9.23;6.78;;;12.00;99.90;;;;;;10468005;28;20045;-82
2022/06/22 05:09:16;;;;;;;13.02;6.20;;;12.20;99.90;;;;;;10464594;28;20082;-83
2022/06/22 05:14:24;;;;;;;12.52;7.10;;;12.40;99.90;;;;;;10468299;28;20025;-81
2022/06/22 05:19:36;;;;;;;8.60;5.47;;;12.70;99.90;;;;;;10465147;28;20584;-84
2022/06/22 05:24:41;;;;;;;9.98;6.63;;;13.00;99.90;;;;;;10457459;28;20023;-84
2022/06/22 05:29:47;;;;;;;10.25;5.47;;;13.30;99.90;;;;;;10480853;28;20075;-82
2022/06/22 05:34:50;;;;;;;7.85;5.00;;;13.50;99.90;;;;;;10459120;28;20017;-87
2022/06/22 05:39:52;;;;;;;10.27;4.88;;;13.90;99.90;;;;;;10480391;28;20505;-83
2022/06/22 05:44:53;;;;;;;6.30;4.28;;;14.30;99.90;;;;;;10464583;28;20078;-84
2022/06/22 05:50:14;;;;;;;8.13;4.30;;;14.60;99.90;;;;;;10473616;28;21944;-84
2022/06/22 05:55:45;;;;;;;6.28;4.15;;;14.90;99.90;;;;;;10450969;28;20033;-83
2022/06/22 06:00:48;;;;;;;9.13;4.35;;;15.10;99.90;;;;;;10467705;28;20032;-82
2022/06/22 06:06:11;;;;;;;10.57;4.35;;;15.20;99.90;;;;;;10452940;28;20132;-82
2022/06/22 06:11:22;;;;;;;8.95;5.20;;;15.30;99.90;;;;;;10453688;28;20036;-83
2022/06/22 06:16:25;;;;;;;8.07;4.65;;;15.50;99.90;;;;;;10465635;28;20086;-83
2022/06/22 06:21:32;;;;;;;8.35;4.00;;;15.70;99.90;;;;;;10474914;28;20495;-83
2022/06/22 06:32:25;;;;;;;6.32;3.60;;;16.10;99.90;;;;;;10476195;28;20045;-87
2022/06/22 06:37:44;;;;;;;8.00;3.40;;;16.40;99.90;;;;;;10480164;28;20041;-83
2022/06/22 06:42:56;;;;;;;5.80;3.58;;;16.60;99.90;;;;;;10460288;28;20047;-83
2022/06/22 06:48:06;;;;;;;6.10;3.10;;;16.70;99.90;;;;;;10471262;28;20116;-86
2022/06/22 06:53:28;;;;;;;4.22;2.63;;;17.00;99.90;;;;;;10475540;28;20028;-85
2022/06/22 06:58:45;;;;;;;10.18;3.20;;;18.20;99.90;;;;;;10482349;28;20037;-82
2022/06/22 07:03:47;;;;;;;6.35;2.40;;;20.30;92.10;;;;;;10472243;28;20045;-85
2022/06/22 07:09:13;;;;;;;5.85;2.20;;;22.10;91.10;;;;;;10458024;28;20021;-84
2022/06/22 07:14:35;;;;;;;2.90;2.15;;;23.60;76.10;;;;;;10477379;28;20017;-83
2022/06/22 07:20:06;;;;;;;2.92;1.70;;;24.40;78.80;;;;;;10478073;28;20040;-84
2022/06/22 07:25:15;;;;;;;5.50;2.10;;;24.80;73.30;;;;;;10461292;28;20045;-88
2022/06/22 07:30:32;;;;;;;4.15;2.60;;;24.90;71.30;;;;;;10476772;28;20519;-86
2022/06/22 07:35:52;;;;;;;3.22;2.35;;;24.90;70.00;;;;;;10458810;28;20056;-84
2022/06/22 07:46:24;;;;;;;2.70;1.83;;;24.80;70.20;;;;;;10463894;28;20037;-84
2022/06/22 07:51:29;;;;;;;2.47;1.40;;;24.90;69.30;;;;;;10449706;28;20128;-83
2022/06/22 07:56:52;;;;;;;2.85;1.70;;;24.90;67.10;;;;;;10474333;28;20031;-85
2022/06/22 08:01:59;;;;;;;1.98;1.70;;;24.30;67.50;;;;;;10478559;28;20032;-84
2022/06/22 08:07:17;;;;;;;3.28;1.42;;;23.80;67.80;;;;;;10474075;28;20025;-83
2022/06/22 08:12:27;;;;;;;3.85;2.30;;;23.40;67.00;;;;;;10457851;28;20534;-85
2022/06/22 08:17:42;;;;;;;2.05;1.50;;;23.10;68.60;;;;;;10463860;28;20040;-83
2022/06/22 08:22:45;;;;;;;3.63;1.95;;;22.90;67.90;;;;;;10460280;28;20070;-85
2022/06/22 08:27:46;;;;;;;5.82;2.33;;;22.80;68.30;;;;;;10478980;28;20044;-84
2022/06/22 08:33:08;;;;;;;3.60;1.80;;;22.90;69.50;;;;;;10472191;28;20099;-83
2022/06/22 08:38:29;;;;;;;3.80;2.17;;;23.20;67.90;;;;;;10474918;28;20043;-84
2022/06/22 08:43:45;;;;;;;6.45;2.03;;;23.30;67.90;;;;;;10464949;28;20029;-84
2022/06/22 08:49:21;;;;;;;2.08;1.40;;;23.30;66.00;;;;;;10476233;28;20017;-84
2022/06/22 08:54:52;;;;;;;3.30;1.35;;;23.20;64.70;;;;;;10459946;28;20029;-85
2022/06/22 09:00:19;;;;;;;6.10;1.60;;;22.90;65.20;;;;;;10484698;28;20024;-83
2022/06/22 09:05:19;;;;;;;3.42;1.45;;;23.30;67.00;;;;;;10464192;28;20488;-83
2022/06/22 09:10:35;;;;;;;2.05;1.17;;;23.70;67.20;;;;;;10469934;28;20024;-84
2022/06/22 09:15:41;;;;;;;;;;;23.80;66.00;;;;;;10463621;28;20118;-84
2022/06/22 09:20:41;;;;;;;4.28;1.33;;;23.20;65.20;;;;;;10473879;28;20366;-83
2022/06/22 09:26:05;;;;;;;5.75;1.40;;;23.20;65.30;;;;;;10473840;28;20032;-83
2022/06/22 09:31:27;;;;;;;2.58;1.10;;;23.40;64.50;;;;;;10475110;28;20103;-84
2022/06/22 09:36:43;;;;;;;2.03;0.90;;;23.80;65.40;;;;;;10468259;28;20032;-83
2022/06/22 09:42:04;;;;;;;1.73;0.85;;;24.00;63.80;;;;;;10482003;28;20066;-84
2022/06/22 09:47:19;;;;;;;2.67;1.00;;;23.80;62.60;;;;;;10478394;28;20056;-83
2022/06/22 09:52:20;;;;;;;;;;;23.70;64.00;;;;;;10468214;28;20025;-84
2022/06/22 09:57:36;;;;;;;3.67;1.02;;;24.10;65.30;;;;;;10473150;28;20283;-83
2022/06/22 10:03:05;;;;;;;2.88;1.15;;;24.20;64.10;;;;;;10467938;28;20060;-85
2022/06/22 10:08:27;;;;;;;2.30;1.10;;;24.60;62.10;;;;;;10478125;28;20020;-83
2022/06/22 10:13:39;;;;;;;1.95;1.23;;;24.60;61.50;;;;;;10469653;28;20029;-84
2022/06/22 10:18:58;;;;;;;1.52;0.98;;;24.40;63.60;;;;;;10453148;28;20132;-85
2022/06/22 10:24:40;;;;;;;3.60;1.20;;;24.30;65.50;;;;;;10463729;28;20043;-84
2022/06/22 10:29:58;;;;;;;2.60;1.13;;;24.30;62.40;;;;;;10473831;28;20622;-84
2022/06/22 10:35:21;;;;;;;1.73;1.00;;;24.50;61.30;;;;;;10468138;28;20017;-84
2022/06/22 10:46:25;;;;;;;3.60;0.85;;;23.80;62.00;;;;;;10461785;28;20037;-83
2022/06/22 10:51:42;;;;;;;3.83;1.00;;;24.00;62.50;;;;;;10448242;28;20021;-83
2022/06/22 10:57:14;;;;;;;1.80;0.90;;;24.40;61.00;;;;;;10451844;28;20060;-83
2022/06/22 11:02:36;;;;;;;1.63;1.10;;;25.00;62.40;;;;;;10399550;28;1536131;-87
2022/06/22 11:07:57;;;;;;;2.30;0.95;;;25.40;59.50;;;;;;10458069;28;20020;-83
2022/06/22 11:13:31;;;;;;;2.80;1.10;;;25.20;60.30;;;;;;10463749;28;20086;-83
2022/06/22 11:18:40;;;;;;;3.33;0.80;;;24.70;62.40;;;;;;10453590;28;20492;-83
2022/06/22 11:24:03;;;;;;;2.67;0.85;;;25.30;62.90;;;;;;10454239;28;20117;-86
2022/06/22 11:35:03;;;;;;;2.13;0.90;;;25.70;59.90;;;;;;10471909;28;20037;-83
2022/06/22 11:40:22;;;;;;;1.85;0.90;;;26.30;59.90;;;;;;10463303;28;20047;-86
2022/06/22 11:45:50;;;;;;;1.20;0.80;;;26.40;58.00;;;;;;10462369;28;20043;-83
2022/06/22 11:50:54;;;;;;;2.00;1.17;;;25.20;58.70;;;;;;10452053;28;20107;-83
2022/06/22 11:56:03;;;;;;;2.58;0.90;;;24.70;61.50;;;;;;10462528;28;20036;-83
2022/06/22 12:01:27;;;;;;;3.70;0.93;;;24.50;62.60;;;;;;10470814;28;20037;-84
2022/06/22 12:06:48;;;;;;;1.67;0.70;;;24.20;61.90;;;;;;10457065;28;20057;-81
2022/06/22 12:12:13;;;;;;;2.30;0.82;;;23.90;63.20;;;;;;10453516;28;20396;-82
2022/06/22 12:17:25;;;;;;;1.70;1.23;;;24.40;64.10;;;;;;10464873;28;20033;-82
2022/06/22 12:23:01;;;;;;;3.67;1.08;;;24.50;64.70;;;;;;10470378;28;20293;-82
2022/06/22 12:28:29;;;;;;;0.90;0.75;;;25.50;62.90;;;;;;10451393;28;20494;-82
2022/06/22 12:33:36;;;;;;;1.85;1.00;;;26.20;59.30;;;;;;10448901;28;20025;-82
2022/06/22 12:38:36;;;;;;;3.97;0.98;;;26.20;60.50;;;;;;10452796;28;20025;-85
2022/06/22 12:43:37;;;;;;;2.40;0.93;;;26.10;62.10;;;;;;10468643;28;20028;-84
2022/06/22 12:48:58;;;;;;;2.08;0.77;;;26.30;60.10;;;;;;10454539;28;20482;-82
2022/06/22 12:54:12;;;;;;;2.88;0.98;;;26.10;57.50;;;;;;10464037;28;20352;-82
2022/06/22 12:59:37;;;;;;;1.02;0.80;;;26.00;58.20;;;;;;10457511;28;20375;-82
2022/06/22 13:04:38;;;;;;;1.73;1.02;;;25.20;60.00;;;;;;10454293;28;20431;-84
2022/06/22 13:09:39;;;;;;;2.22;1.00;;;25.00;63.80;;;;;;10453700;28;20025;-81
2022/06/22 13:15:00;;;;;;;1.80;0.80;;;25.60;61.10;;;;;;10454173;28;20029;-82
2022/06/22 13:20:29;;;;;;;3.08;1.35;;;25.90;61.10;;;;;;10454314;28;20032;-80
2022/06/22 13:25:58;;;;;;;1.70;0.77;;;25.90;57.40;;;;;;10432420;28;20111;-82
2022/06/22 13:31:04;;;;;;;1.30;0.95;;;25.50;59.90;;;;;;10452083;28;20064;-81
2022/06/22 13:36:22;;;;;;;1.95;0.90;;;25.50;60.10;;;;;;10463850;28;20020;-83
2022/06/22 13:42:11;;;;;;;1.80;0.90;;;25.30;58.70;;;;;;10447426;28;20443;-81
2022/06/22 13:47:36;;;;;;;1.63;0.90;;;25.00;60.90;;;;;;10458837;28;20029;-81
2022/06/22 13:52:47;;;;;;;2.33;0.85;;;25.50;61.00;;;;;;10456803;28;20096;-82
2022/06/22 13:58:02;;;;;;;2.20;1.10;;;25.50;57.10;;;;;;10464656;28;20028;-81
2022/06/22 14:03:14;;;;;;;2.05;1.13;;;25.90;58.40;;;;;;10461914;28;20438;-81
2022/06/22 14:08:20;;;;;;;1.60;1.00;;;26.50;58.50;;;;;;10459402;28;20852;-82
2022/06/22 14:13:45;;;;;;;1.83;1.13;;;26.80;59.70;;;;;;10459383;28;20057;-84
2022/06/22 14:18:59;;;;;;;1.13;0.88;;;26.80;56.70;;;;;;10455705;28;20041;-82
2022/06/22 14:24:35;;;;;;;4.80;1.35;;;26.40;56.50;;;;;;10449540;28;20518;-83
2022/06/22 14:30:09;;;;;;;3.22;1.23;;;26.10;59.10;;;;;;10448004;28;20056;-86
2022/06/22 14:35:32;;;;;;;1.70;1.05;;;26.00;58.50;;;;;;10429715;28;20033;-82
2022/06/22 14:40:48;;;;;;;1.30;0.90;;;25.80;58.10;;;;;;10458959;28;20028;-83
2022/06/22 14:45:55;;;;;;;3.95;1.10;;;25.50;59.60;;;;;;10458550;28;20053;-82
2022/06/22 14:51:20;;;;;;;2.92;0.98;;;25.40;60.30;;;;;;10471462;28;20361;-84
2022/06/22 14:56:30;;;;;;;1.13;1.02;;;25.30;59.50;;;;;;10465192;28;20028;-83
2022/06/22 15:01:43;;;;;;;2.60;1.10;;;25.10;59.70;;;;;;10471912;28;20070;-83
2022/06/22 15:07:06;;;;;;;3.22;1.30;;;24.90;61.60;;;;;;10478466;28;20043;-83
2022/06/22 15:17:46;;;;;;;2.72;1.35;;;24.70;63.00;;;;;;10483022;23;20053;-83
2022/06/22 15:22:47;;;;;;;4.82;1.50;;;24.40;61.50;;;;;;10418702;28;20017;-82
2022/06/22 15:28:03;;;;;;;3.47;1.40;;;24.10;62.50;;;;;;10431817;28;20024;-85
2022/06/22 15:33:07;;;;;;;3.08;1.27;;;24.00;63.00;;;;;;10440702;28;20040;-85
2022/06/22 15:38:16;;;;;;;1.63;0.85;;;23.90;61.00;;;;;;10435591;28;20064;-86
2022/06/22 15:43:44;;;;;;;1.95;1.10;;;23.70;64.20;;;;;;10425353;28;20024;-82
2022/06/22 15:49:03;;;;;;;1.15;0.98;;;23.70;61.80;;;;;;10428839;28;20960;-83
2022/06/22 15:54:17;;;;;;;2.92;1.30;;;23.50;62.10;;;;;;10425396;28;20105;-83
2022/06/22 15:59:55;;;;;;;3.80;1.40;;;23.10;62.50;;;;;;10424031;28;20044;-83
2022/06/22 16:05:03;;;;;;;1.90;1.10;;;22.80;64.40;;;;;;10429003;28;20084;-85
2022/06/22 16:10:06;;;;;;;1.70;1.00;;;22.50;66.00;;;;;;10438676;28;20033;-82
2022/06/22 16:15:30;;;;;;;2.22;1.10;;;22.40;66.00;;;;;;10419068;28;20032;-82
2022/06/22 16:20:45;;;;;;;1.33;1.20;;;22.40;68.80;;;;;;10424988;28;20132;-84
2022/06/22 16:25:57;;;;;;;4.05;1.80;;;22.10;68.60;;;;;;10428766;28;20028;-85
2022/06/22 16:31:11;;;;;;;1.77;0.90;;;22.20;65.10;;;;;;10436661;28;20036;-82
2022/06/22 16:36:27;;;;;;;2.78;1.13;;;22.40;66.40;;;;;;10433391;28;20035;-82
2022/06/22 16:41:40;;;;;;;1.50;0.65;;;22.50;64.30;;;;;;10416049;28;20029;-83
2022/06/22 16:46:52;;;;;;;4.30;1.13;;;22.50;63.20;;;;;;10426594;28;20462;-85
2022/06/22 16:51:58;;;;;;;2.90;0.80;;;22.50;61.90;;;;;;10421340;28;20021;-82
2022/06/22 16:57:01;;;;;;;1.17;0.90;;;22.50;64.00;;;;;;10417341;28;20029;-83
2022/06/22 17:02:09;;;;;;;2.28;1.10;;;22.40;66.60;;;;;;10407528;28;20428;-84
2022/06/22 17:07:33;;;;;;;1.85;0.98;;;22.20;67.00;;;;;;10447111;23;20059;-85
2022/06/22 17:12:38;;;;;;;4.18;0.90;;;22.00;68.00;;;;;;10427614;28;20009;-83
2022/06/22 17:18:28;;;;;;;1.05;0.95;;;21.90;69.60;;;;;;10423641;28;20021;-82
2022/06/22 17:23:45;;;;;;;2.05;1.10;;;21.90;67.00;;;;;;10424618;28;20436;-82
2022/06/22 17:28:57;;;;;;;1.63;1.05;;;21.80;67.60;;;;;;10417966;28;20109;-83
2022/06/22 17:34:07;;;;;;;3.78;1.10;;;21.80;67.30;;;;;;10423437;28;20021;-82
2022/06/22 17:39:27;;;;;;;2.00;1.20;;;21.70;71.50;;;;;;10420010;28;20108;-83
2022/06/22 17:44:45;;;;;;;1.30;1.20;;;21.30;75.50;;;;;;10434620;28;20353;-82
2022/06/22 17:49:48;;;;;;;3.47;1.27;;;20.90;75.80;;;;;;10423603;28;20492;-82
2022/06/22 17:55:04;;;;;;;1.67;1.15;;;20.60;77.40;;;;;;10405797;28;20037;-83
2022/06/22 18:00:19;;;;;;;2.30;1.20;;;20.20;78.80;;;;;;10416527;28;20029;-82
2022/06/22 18:05:47;;;;;;;4.40;1.42;;;19.90;79.70;;;;;;10412996;28;20072;-83
2022/06/22 18:11:03;;;;;;;3.25;1.33;;;19.60;79.50;;;;;;10424715;28;20021;-84
2022/06/22 18:16:05;;;;;;;;;;;19.20;80.80;;;;;;10429938;28;20045;-83
2022/06/22 18:21:06;;;;;;;19.63;9.93;;;18.90;82.90;;;;;;10435546;28;19908;-82
2022/06/22 18:26:10;;;;;;;60.55;37.72;;;18.50;82.80;;;;;;10413612;28;20018;-83
2022/06/22 18:31:34;;;;;;;6.88;3.17;;;18.30;83.90;;;;;;10444076;23;20412;-84
2022/06/22 18:36:51;;;;;;;5.15;2.15;;;18.10;85.10;;;;;;10422697;28;20036;-83
2022/06/22 18:42:11;;;;;;;16.98;11.05;;;17.90;85.00;;;;;;10439367;28;20037;-83
2022/06/22 18:47:22;;;;;;;3.33;1.70;;;17.70;86.00;;;;;;10426285;28;20018;-83
2022/06/22 18:52:43;;;;;;;4.10;1.85;;;17.40;86.80;;;;;;10412715;28;20366;-83
2022/06/22 18:57:45;;;;;;;2.90;2.00;;;17.20;87.70;;;;;;10428776;28;20036;-83
2022/06/22 19:03:02;;;;;;;3.92;2.13;;;17.00;87.50;;;;;;10421631;28;20017;-84
2022/06/22 19:08:29;;;;;;;2.50;1.48;;;16.90;88.10;;;;;;10428379;28;20025;-82
2022/06/22 19:13:38;;;;;;;2.90;1.70;;;16.70;88.90;;;;;;10404988;28;20029;-84
2022/06/22 19:19:06;;;;;;;4.13;1.95;;;16.60;88.70;;;;;;10417924;28;20035;-84
2022/06/22 19:24:31;;;;;;;4.43;1.83;;;16.40;90.20;;;;;;10432297;28;20128;-84
2022/06/22 19:29:38;;;;;;;2.80;1.80;;;16.40;90.00;;;;;;10427551;28;20083;-84
2022/06/22 19:34:58;;;;;;;2.83;2.22;;;16.30;90.10;;;;;;10425348;28;20022;-83
2022/06/22 19:40:26;;;;;;;3.17;2.05;;;16.20;90.60;;;;;;10429726;28;20040;-83
2022/06/22 19:45:42;;;;;;;7.80;2.20;;;16.10;90.80;;;;;;10430498;28;20563;-84
2022/06/22 19:50:58;;;;;;;3.85;2.10;;;16.10;91.10;;;;;;10431440;28;20071;-83
2022/06/22 19:56:10;;;;;;;3.78;2.30;;;16.10;91.00;;;;;;10422721;28;20025;-85
2022/06/22 20:01:14;;;;;;;3.67;2.08;;;16.10;91.10;;;;;;10423117;28;20082;-85
2022/06/22 20:06:19;;;;;;;6.35;2.85;;;16.10;91.20;;;;;;10406994;28;20437;-84
2022/06/22 20:11:29;;;;;;;4.82;2.50;;;16.00;91.40;;;;;;10433151;28;20056;-83
2022/06/22 20:16:51;;;;;;;5.65;2.90;;;16.00;91.30;;;;;;10416918;28;20479;-83
2022/06/22 20:21:58;;;;;;;6.63;3.30;;;16.00;91.50;;;;;;10428577;28;20021;-82
2022/06/22 20:27:16;;;;;;;5.60;3.33;;;15.80;91.80;;;;;;10417362;28;20017;-83
2022/06/22 20:32:26;;;;;;;8.32;3.63;;;15.80;92.00;;;;;;10418817;28;20397;-82
2022/06/22 20:37:31;;;;;;;8.85;3.75;;;15.80;92.20;;;;;;10431816;28;20124;-83
2022/06/22 20:43:00;;;;;;;6.80;3.63;;;15.70;92.50;;;;;;10426399;28;20037;-82
2022/06/22 20:48:19;;;;;;;6.63;4.05;;;15.60;92.90;;;;;;10435011;28;20017;-83
2022/06/22 20:53:48;;;;;;;7.55;4.20;;;15.50;93.80;;;;;;10419536;28;20037;-83
2022/06/22 20:58:57;;;;;;;6.25;3.58;;;15.50;94.40;;;;;;10424157;28;20029;-83
2022/06/22 21:04:08;;;;;;;8.32;4.10;;;15.50;94.20;;;;;;10420273;28;20032;-83
2022/06/22 21:09:12;;;;;;;5.57;3.60;;;15.50;94.10;;;;;;10422237;28;20032;-83
2022/06/22 21:14:20;;;;;;;6.85;3.97;;;15.60;94.00;;;;;;10416679;28;20036;-83
2022/06/22 21:19:52;;;;;;;7.85;3.50;;;15.50;94.10;;;;;;10416445;28;20040;-82
2022/06/22 21:24:56;;;;;;;5.82;3.58;;;15.40;94.30;;;;;;10408940;28;20052;-81
2022/06/22 21:30:15;;;;;;;7.00;3.55;;;15.30;94.70;;;;;;10428186;28;20061;-86
2022/06/22 21:35:42;;;;;;;13.23;6.85;;;15.30;94.90;;;;;;10423477;28;20041;-84
2022/06/22 21:41:10;;;;;;;16.02;9.23;;;15.20;95.60;;;;;;10420832;28;20404;-84
2022/06/22 21:46:44;;;;;;;10.90;7.25;;;15.10;95.70;;;;;;10427360;28;20036;-82
2022/06/22 21:52:07;;;;;;;11.90;7.32;;;14.90;96.80;;;;;;10425536;28;20048;-83
2022/06/22 21:57:29;;;;;;;10.68;6.65;;;14.60;99.20;;;;;;10420291;28;20032;-85
2022/06/22 22:02:59;;;;;;;10.27;5.95;;;14.40;99.90;;;;;;10417186;28;20112;-86
2022/06/22 22:08:14;;;;;;;9.93;5.50;;;14.40;99.90;;;;;;10424168;28;20057;-85
2022/06/22 22:13:16;;;;;;;9.02;5.50;;;14.30;99.90;;;;;;10421630;28;20022;-82
2022/06/22 22:18:18;;;;;;;9.38;5.57;;;14.20;99.90;;;;;;10432299;28;20034;-82
2022/06/22 22:23:24;;;;;;;8.82;5.90;;;14.10;99.90;;;;;;10408673;28;20022;-82
2022/06/22 22:28:35;;;;;;;7.15;4.55;;;14.10;99.90;;;;;;10428678;28;20675;-82
2022/06/22 22:33:38;;;;;;;7.45;4.60;;;14.00;99.90;;;;;;10437809;28;20040;-84
2022/06/22 22:38:45;;;;;;;9.52;5.10;;;14.00;99.90;;;;;;10442214;28;20140;-85
2022/06/22 22:44:00;;;;;;;7.85;4.47;;;13.90;99.90;;;;;;10430596;28;20021;-82
2022/06/22 22:49:11;;;;;;;6.15;4.10;;;13.80;99.90;;;;;;10424633;28;20618;-81
2022/06/22 22:54:17;;;;;;;8.32;4.60;;;13.80;99.90;;;;;;10425326;28;20020;-84
2022/06/22 22:59:17;;;;;;;;;;;13.70;99.90;;;;;;10420660;28;20739;-82
2022/06/22 23:04:26;;;;;;;5.68;3.50;;;13.70;99.90;;;;;;10432792;28;19991;-82
2022/06/22 23:09:27;;;;;;;5.53;4.20;;;13.70;99.90;;;;;;10438409;23;20065;-83
2022/06/22 23:14:33;;;;;;;5.07;3.85;;;13.50;99.90;;;;;;10433659;28;20096;-82
2022/06/22 23:19:38;;;;;;;6.53;3.80;;;13.50;99.90;;;;;;10444124;28;20354;-82
2022/06/22 23:24:41;;;;;;;7.90;4.03;;;13.50;99.90;;;;;;10434960;28;20473;-82
2022/06/22 23:29:42;;;;;;;6.53;4.15;;;13.50;99.90;;;;;;10436696;28;20025;-82
2022/06/22 23:34:44;;;;;;;6.93;3.95;;;13.30;99.90;;;;;;10440066;28;20017;-85
2022/06/22 23:39:44;;;;;;;6.72;4.00;;;13.20;99.90;;;;;;10442663;28;20434;-82
2022/06/22 23:44:46;;;;;;;7.65;4.07;;;13.20;99.90;;;;;;10448799;28;20028;-82
2022/06/22 23:49:49;;;;;;;4.93;3.63;;;13.10;99.90;;;;;;10432107;28;20510;-82
2022/06/22 23:54:51;;;;;;;7.30;4.35;;;13.00;99.90;;;;;;10432374;28;20029;-82
2022/06/22 23:59:52;;;;;;;4.40;3.83;;;12.90;99.90;;;;;;10430073;28;20044;-82
